createdAt,value
2023-02-12T00:00:49.198Z,-0.90
2023-02-12T00:05:53.427Z,-0.68
2023-02-12T00:10:57.165Z,-0.62
2023-02-12T00:16:00.726Z,-1.18
2023-02-12T00:21:04.886Z,-1.54
2023-02-12T00:26:14.559Z,-1.52
2023-02-12T00:31:27.352Z,-1.60
2023-02-12T00:36:33.286Z,-1.62
2023-02-12T00:41:37.535Z,-1.79
2023-02-12T00:46:40.993Z,-2.00
2023-02-12T00:51:44.123Z,-2.13
2023-02-12T00:56:47.245Z,-2.20
2023-02-12T01:01:53.602Z,-2.33
2023-02-12T01:06:56.914Z,-2.42
2023-02-12T01:12:00.684Z,-2.43
2023-02-12T01:17:03.997Z,-2.53
2023-02-12T01:22:07.554Z,-2.55
2023-02-12T01:27:10.631Z,-2.60
2023-02-12T01:32:14.210Z,-2.53
2023-02-12T01:37:17.938Z,-2.69
2023-02-12T01:42:21.525Z,-2.75
2023-02-12T01:47:25.399Z,-2.74
2023-02-12T01:52:33.328Z,-2.72
2023-02-12T01:57:40.919Z,-2.65
2023-02-12T02:02:46.497Z,-2.60
2023-02-12T02:07:54.167Z,-2.68
2023-02-12T02:13:16.724Z,-2.70
2023-02-12T02:18:46.019Z,-2.75
2023-02-12T02:24:12.315Z,-2.70
2023-02-12T02:29:27.824Z,-2.66
2023-02-12T02:34:59.800Z,-2.74
2023-02-12T02:40:13.994Z,-2.76
2023-02-12T02:45:30.723Z,-2.82
2023-02-12T02:50:38.945Z,-3.00
2023-02-12T02:55:52.482Z,-2.98
2023-02-12T03:01:08.314Z,-3.04
2023-02-12T03:06:32.418Z,-3.13
2023-02-12T03:11:36.688Z,-3.15
2023-02-12T03:16:59.223Z,-3.11
2023-02-12T03:22:04.560Z,-3.08
2023-02-12T03:27:22.531Z,-3.04
2023-02-12T03:32:49.456Z,-2.97
2023-02-12T03:38:17.589Z,-2.97
2023-02-12T03:43:29.657Z,-3.06
2023-02-12T03:48:49.923Z,-3.02
2023-02-12T03:53:53.276Z,-3.16
2023-02-12T03:58:56.749Z,-3.08
2023-02-12T04:04:03.520Z,-3.06
2023-02-12T04:09:10.208Z,-3.03
2023-02-12T04:14:25.594Z,-3.05
2023-02-12T04:19:49.416Z,-3.12
2023-02-12T04:25:16.970Z,-3.21
2023-02-12T04:30:35.857Z,-3.21
2023-02-12T04:36:06.517Z,-3.11
2023-02-12T04:41:10.985Z,-3.24
2023-02-12T04:46:14.494Z,-3.25
2023-02-12T04:51:17.612Z,-3.19
2023-02-12T04:56:21.385Z,-3.23
2023-02-12T05:01:25.182Z,-3.19
2023-02-12T05:06:30.579Z,-3.27
2023-02-12T05:11:33.923Z,-3.25
2023-02-12T05:16:37.397Z,-3.25
2023-02-12T05:21:40.882Z,-3.25
2023-02-12T05:26:45.116Z,-3.22
2023-02-12T05:31:48.608Z,-3.26
2023-02-12T05:36:54.432Z,-3.25
2023-02-12T05:41:57.640Z,-3.30
2023-02-12T05:47:01.280Z,-3.15
2023-02-12T05:52:04.638Z,-3.07
2023-02-12T05:57:08.649Z,-3.11
2023-02-12T06:02:11.827Z,-3.10
2023-02-12T06:07:14.928Z,-2.88
2023-02-12T06:12:18.650Z,-2.80
2023-02-12T06:17:21.793Z,-2.57
2023-02-12T06:22:25.453Z,-2.35
2023-02-12T06:27:28.628Z,-2.01
2023-02-12T06:32:32.588Z,-1.71
2023-02-12T06:37:37.600Z,-1.45
2023-02-12T06:42:41.054Z,-1.16
2023-02-12T06:47:44.505Z,-0.45
2023-02-12T06:52:47.741Z,3.40
2023-02-12T06:57:51.317Z,5.79
2023-02-12T07:02:56.040Z,8.08
2023-02-12T07:07:59.273Z,10.11
2023-02-12T07:13:02.411Z,11.57
2023-02-12T07:18:05.524Z,11.58
2023-02-12T07:23:12.309Z,12.72
2023-02-12T07:28:15.733Z,13.15
2023-02-12T07:33:20.282Z,13.45
2023-02-12T07:38:23.637Z,13.21
2023-02-12T07:43:26.764Z,13.74
2023-02-12T07:48:29.950Z,14.01
2023-02-12T07:53:33.130Z,14.35
2023-02-12T07:58:36.454Z,15.30
2023-02-12T08:03:40.446Z,14.63
2023-02-12T08:08:44.140Z,14.97
2023-02-12T08:13:48.948Z,14.28
2023-02-12T08:18:54.652Z,14.25
2023-02-12T08:23:59.578Z,14.11
2023-02-12T08:29:07.587Z,14.63
2023-02-12T08:34:37.680Z,15.85
2023-02-12T08:39:41.136Z,15.59
2023-02-12T08:44:44.795Z,16.19
2023-02-12T08:49:48.523Z,16.15
2023-02-12T08:54:51.886Z,15.60
2023-02-12T08:59:55.503Z,15.17
2023-02-12T09:04:58.908Z,15.40
2023-02-12T09:10:02.076Z,14.99
2023-02-12T09:15:06.068Z,15.55
2023-02-12T09:20:09.868Z,16.15
2023-02-12T09:25:13.155Z,16.12
2023-02-12T09:30:16.856Z,16.68
2023-02-12T09:35:20.973Z,16.05
2023-02-12T09:40:42.744Z,16.19
2023-02-12T09:46:15.668Z,16.12
2023-02-12T09:51:19.014Z,16.27
2023-02-12T09:56:25.430Z,15.81
2023-02-12T10:01:29.090Z,15.97
2023-02-12T10:06:41.996Z,16.58
2023-02-12T10:12:05.599Z,16.04
2023-02-12T10:17:08.907Z,15.74
2023-02-12T10:22:33.769Z,16.12
2023-02-12T10:27:42.220Z,15.58
2023-02-12T10:32:48.055Z,16.03
2023-02-12T10:38:05.320Z,15.94
2023-02-12T10:43:13.788Z,16.23
2023-02-12T10:48:27.454Z,15.95
2023-02-12T10:53:38.650Z,15.66
2023-02-12T10:58:57.996Z,15.56
2023-02-12T11:04:19.806Z,14.83
2023-02-12T11:09:45.723Z,14.42
2023-02-12T11:15:14.276Z,13.74
2023-02-12T11:20:17.560Z,13.18
2023-02-12T11:25:22.185Z,13.13
2023-02-12T11:30:25.636Z,13.25
2023-02-12T11:35:35.633Z,13.20
2023-02-12T11:40:39.458Z,13.35
2023-02-12T11:45:48.234Z,13.48
2023-02-12T11:50:57.850Z,13.50
2023-02-12T11:56:04.823Z,13.79
2023-02-12T12:01:12.705Z,13.43
2023-02-12T12:06:41.408Z,13.80
2023-02-12T12:12:08.430Z,13.66
2023-02-12T12:17:35.928Z,13.57
2023-02-12T12:23:04.191Z,13.76
2023-02-12T12:28:29.697Z,14.58
2023-02-12T12:33:43.933Z,14.47
2023-02-12T12:38:54.743Z,14.93
2023-02-12T12:44:15.478Z,14.99
2023-02-12T12:49:44.823Z,14.45
2023-02-12T12:55:22.176Z,15.08
2023-02-12T13:00:37.396Z,15.71
2023-02-12T13:05:59.315Z,15.31
2023-02-12T13:11:38.237Z,14.45
2023-02-12T13:17:11.445Z,15.41
2023-02-12T13:22:26.359Z,15.77
2023-02-12T13:27:40.977Z,15.91
2023-02-12T13:32:50.015Z,15.43
2023-02-12T13:37:55.411Z,15.56
2023-02-12T13:43:13.417Z,15.76
2023-02-12T13:48:41.164Z,16.99
2023-02-12T13:54:05.424Z,16.52
2023-02-12T13:59:31.234Z,16.83
2023-02-12T14:04:40.244Z,16.64
2023-02-12T14:09:45.354Z,16.99
2023-02-12T14:14:53.674Z,16.22
2023-02-12T14:20:22.404Z,17.14
2023-02-12T14:25:25.933Z,14.57
2023-02-12T14:30:40.227Z,14.79
2023-02-12T14:35:49.849Z,14.03
2023-02-12T14:40:54.247Z,13.61
2023-02-12T14:46:17.660Z,13.86
2023-02-12T14:51:31.992Z,12.23
2023-02-12T14:56:46.693Z,11.40
2023-02-12T15:01:51.935Z,11.38
2023-02-12T15:07:01.147Z,11.26
2023-02-12T15:12:32.979Z,11.16
2023-02-12T15:17:41.244Z,10.65
2023-02-12T15:22:44.299Z,10.20
2023-02-12T15:27:50.812Z,9.90
2023-02-12T15:32:57.083Z,9.69
2023-02-12T15:38:02.321Z,9.21
2023-02-12T15:43:07.985Z,9.03
2023-02-12T15:48:19.444Z,8.84
2023-02-12T15:53:25.222Z,8.31
2023-02-12T15:58:38.479Z,8.39
2023-02-12T16:03:42.273Z,8.16
2023-02-12T16:08:49.006Z,8.03
2023-02-12T16:13:56.178Z,7.88
2023-02-12T16:19:17.883Z,7.75
2023-02-12T16:24:28.007Z,7.54
2023-02-12T16:29:33.428Z,7.35
2023-02-12T16:34:38.994Z,7.20
2023-02-12T16:40:14.319Z,6.97
2023-02-12T16:45:31.779Z,6.78
2023-02-12T16:50:40.157Z,6.94
2023-02-12T16:55:43.628Z,6.37
2023-02-12T17:00:47.475Z,6.32
2023-02-12T17:05:52.296Z,6.45
2023-02-12T17:10:55.722Z,6.45
2023-02-12T17:16:04.495Z,6.41
2023-02-12T17:21:21.329Z,6.41
2023-02-12T17:26:27.061Z,6.41
2023-02-12T17:31:31.073Z,6.36
2023-02-12T17:36:35.517Z,6.34
2023-02-12T17:41:38.882Z,6.36
2023-02-12T17:46:43.556Z,6.38
2023-02-12T17:51:46.849Z,6.40
2023-02-12T17:56:49.945Z,6.42
2023-02-12T18:01:53.296Z,6.36
2023-02-12T18:06:57.991Z,6.27
2023-02-12T18:12:01.133Z,5.97
2023-02-12T18:17:05.448Z,6.13
2023-02-12T18:22:08.727Z,6.07
2023-02-12T18:27:15.609Z,5.98
2023-02-12T18:32:18.873Z,5.86
2023-02-12T18:37:22.390Z,5.68
2023-02-12T18:42:25.420Z,5.73
2023-02-12T18:47:29.430Z,5.73
2023-02-12T18:52:32.508Z,5.68
2023-02-12T18:57:36.582Z,5.61
2023-02-12T19:02:39.674Z,5.52
2023-02-12T19:07:43.671Z,5.40
2023-02-12T19:12:46.858Z,5.38
2023-02-12T19:17:50.441Z,5.25
2023-02-12T19:22:54.035Z,5.20
2023-02-12T19:27:58.909Z,5.08
2023-02-12T19:33:03.123Z,5.02
2023-02-12T19:38:06.620Z,4.91
2023-02-12T19:43:10.028Z,4.80
2023-02-12T19:48:13.665Z,4.65
2023-02-12T19:53:16.786Z,4.72
2023-02-12T19:58:21.151Z,4.61
2023-02-12T20:03:26.567Z,4.48
2023-02-12T20:08:30.583Z,4.20
2023-02-12T20:13:35.420Z,3.82
2023-02-12T20:18:39.663Z,3.52
2023-02-12T20:23:44.093Z,3.80
2023-02-12T20:28:49.350Z,3.63
2023-02-12T20:34:01.603Z,3.36
2023-02-12T20:39:07.626Z,3.00
2023-02-12T20:44:18.017Z,3.16
2023-02-12T20:49:21.591Z,3.05
2023-02-12T20:54:26.209Z,2.92
2023-02-12T20:59:29.386Z,2.88
2023-02-12T21:04:33.405Z,2.99
2023-02-12T21:09:37.258Z,2.84
2023-02-12T21:14:41.125Z,2.82
2023-02-12T21:19:44.694Z,2.90
2023-02-12T21:24:47.794Z,2.63
2023-02-12T21:29:50.887Z,2.43
2023-02-12T21:34:54.190Z,2.14
2023-02-12T21:39:57.959Z,1.96
2023-02-12T21:45:01.918Z,1.82
2023-02-12T21:50:05.771Z,1.55
2023-02-12T21:55:09.386Z,1.64
2023-02-12T22:00:13.666Z,1.52
2023-02-12T22:05:16.604Z,1.58
2023-02-12T22:10:20.735Z,1.60
2023-02-12T22:15:24.450Z,1.79
2023-02-12T22:20:28.053Z,2.30
2023-02-12T22:25:31.161Z,2.75
2023-02-12T22:30:34.818Z,3.01
2023-02-12T22:35:37.870Z,3.07
2023-02-12T22:40:41.984Z,3.35
2023-02-12T22:45:45.962Z,3.51
2023-02-12T22:50:50.028Z,3.47
2023-02-12T22:55:54.422Z,3.55
2023-02-12T23:00:58.132Z,3.60
2023-02-12T23:06:03.547Z,3.60
2023-02-12T23:11:08.572Z,3.58
2023-02-12T23:16:12.726Z,3.62
2023-02-12T23:21:17.612Z,3.72
2023-02-12T23:26:20.910Z,3.74
2023-02-12T23:31:25.835Z,3.64
2023-02-12T23:36:29.547Z,3.73
2023-02-12T23:41:33.830Z,3.72
2023-02-12T23:46:37.805Z,3.73
2023-02-12T23:51:40.825Z,3.74
2023-02-12T23:56:44.899Z,3.83
